Centerview, Texas
Current Conditions -  °F | °C
As of 7:15 AM on Thursday 18 Dec 2014 (Local Time) from KDKR Reporting Station
Drizzle Drizzle  
Wind Chill: 52°   Ceiling: 700
Heat Index: 52°   Visibility: NA
Dew Point: 50°   Wind: 8mph
Humidity: 94%   Direction: 40°NE
Pressure: 30.15"   Gusts: NA
Location:  31.2807°N, 95.8748°W
Report Text: KDKR 181315Z AUTO 04007KT -DZ OVC007 11/10 A3015 RMK AO2
Loading
Personal Weather Stations






























Interactive Weather Map New forecast layout! Learn more

10-Day Weather Forecast

Advertisements
Track Severe Weather on mobile